createdAt,value
2023-08-27T00:00:27.505Z,14.50
2023-08-27T00:02:55.053Z,14.50
2023-08-27T00:05:21.901Z,14.50
2023-08-27T00:07:48.940Z,14.50
2023-08-27T00:10:16.929Z,14.50
2023-08-27T00:12:43.837Z,14.50
2023-08-27T00:15:11.569Z,14.50
2023-08-27T00:17:38.463Z,14.50
2023-08-27T00:20:11.122Z,14.50
2023-08-27T00:22:38.685Z,14.50
2023-08-27T00:25:06.474Z,14.40
2023-08-27T00:27:35.401Z,14.30
2023-08-27T00:30:05.660Z,14.30
2023-08-27T00:32:35.191Z,14.30
2023-08-27T00:35:04.771Z,14.30
2023-08-27T00:37:32.219Z,14.30
2023-08-27T00:39:58.909Z,14.20
2023-08-27T00:42:25.956Z,14.20
2023-08-27T00:44:53.781Z,14.10
2023-08-27T00:47:20.631Z,14.20
2023-08-27T00:49:48.815Z,14.10
2023-08-27T00:52:18.683Z,14.10
2023-08-27T00:54:47.122Z,14.10
2023-08-27T00:57:15.620Z,14.10
2023-08-27T00:59:43.301Z,14.10
2023-08-27T01:02:10.208Z,14.10
2023-08-27T01:04:37.778Z,14.10
2023-08-27T01:07:15.382Z,14.10
2023-08-27T01:09:50.136Z,14.00
2023-08-27T01:12:30.484Z,14.00
2023-08-27T01:14:59.595Z,14.00
2023-08-27T01:17:26.986Z,13.90
2023-08-27T01:19:54.985Z,13.90
2023-08-27T01:22:21.829Z,13.80
2023-08-27T01:24:49.242Z,13.80
2023-08-27T01:27:25.593Z,13.80
2023-08-27T01:30:07.334Z,13.80
2023-08-27T01:32:40.358Z,13.70
2023-08-27T01:35:11.909Z,13.70
2023-08-27T01:37:39.347Z,13.70
2023-08-27T01:40:07.584Z,13.60
2023-08-27T01:42:36.451Z,13.60
2023-08-27T01:45:05.870Z,13.60
2023-08-27T01:47:32.827Z,13.60
2023-08-27T01:50:00.274Z,13.60
2023-08-27T01:52:27.037Z,13.60
2023-08-27T01:54:54.473Z,13.70
2023-08-27T01:57:21.164Z,13.70
2023-08-27T01:59:48.524Z,13.70
2023-08-27T02:02:16.025Z,13.60
2023-08-27T02:04:43.586Z,13.60
2023-08-27T02:07:11.362Z,13.60
2023-08-27T02:09:38.786Z,13.50
2023-08-27T02:12:05.853Z,13.50
2023-08-27T02:14:33.228Z,13.40
2023-08-27T02:16:59.949Z,13.40
2023-08-27T02:19:26.975Z,13.40
2023-08-27T02:21:54.942Z,13.40
2023-08-27T02:24:22.208Z,13.40
2023-08-27T02:26:49.004Z,13.40
2023-08-27T02:29:17.968Z,13.40
2023-08-27T02:31:45.516Z,13.30
2023-08-27T02:34:12.308Z,13.30
2023-08-27T02:36:39.692Z,13.30
2023-08-27T02:39:06.500Z,13.30
2023-08-27T02:41:34.095Z,13.20
2023-08-27T02:44:00.815Z,13.20
2023-08-27T02:46:28.829Z,13.20
2023-08-27T02:48:55.682Z,13.30
2023-08-27T02:51:25.186Z,13.30
2023-08-27T02:53:52.242Z,13.40
2023-08-27T02:56:20.413Z,13.40
2023-08-27T02:58:50.472Z,13.40
2023-08-27T03:01:21.824Z,13.40
2023-08-27T03:03:51.461Z,13.40
2023-08-27T03:06:19.790Z,13.40
2023-08-27T03:08:46.688Z,13.40
2023-08-27T03:11:14.096Z,13.40
2023-08-27T03:13:40.831Z,13.40
2023-08-27T03:16:08.488Z,13.40
2023-08-27T03:18:35.357Z,13.40
2023-08-27T03:21:02.725Z,13.50
2023-08-27T03:23:31.805Z,13.50
2023-08-27T03:26:00.450Z,13.40
2023-08-27T03:28:27.187Z,13.30
2023-08-27T03:30:54.928Z,13.30
2023-08-27T03:33:21.732Z,13.30
2023-08-27T03:35:55.246Z,13.30
2023-08-27T03:38:22.158Z,13.20
2023-08-27T03:40:53.509Z,13.20
2023-08-27T03:43:21.126Z,13.20
2023-08-27T03:45:48.203Z,13.20
2023-08-27T03:48:16.024Z,13.20
2023-08-27T03:50:42.837Z,13.30
2023-08-27T03:53:11.654Z,13.40
2023-08-27T03:55:42.480Z,13.40
2023-08-27T03:58:11.121Z,13.40
2023-08-27T04:00:38.491Z,13.40
2023-08-27T04:03:07.401Z,13.50
2023-08-27T04:05:34.409Z,13.50
2023-08-27T04:08:02.124Z,13.50
2023-08-27T04:10:29.174Z,13.60
2023-08-27T04:12:58.626Z,13.60
2023-08-27T04:15:27.405Z,13.60
2023-08-27T04:17:55.716Z,13.70
2023-08-27T04:20:22.684Z,13.70
2023-08-27T04:22:53.162Z,13.70
2023-08-27T04:25:20.076Z,13.70
2023-08-27T04:27:47.405Z,13.70
2023-08-27T04:30:14.683Z,13.70
2023-08-27T04:32:42.177Z,13.70
2023-08-27T04:35:09.181Z,13.70
2023-08-27T04:37:37.421Z,13.70
2023-08-27T04:40:04.885Z,13.70
2023-08-27T04:42:32.346Z,13.70
2023-08-27T04:44:59.203Z,13.70
2023-08-27T04:47:26.600Z,13.70
2023-08-27T04:49:53.978Z,13.70
2023-08-27T04:52:31.931Z,13.80
2023-08-27T04:54:59.928Z,13.80
2023-08-27T04:57:28.203Z,13.80
2023-08-27T04:59:57.715Z,13.90
2023-08-27T05:02:25.355Z,13.90
2023-08-27T05:04:52.348Z,13.90
2023-08-27T05:07:19.741Z,13.90
2023-08-27T05:09:47.510Z,13.90
2023-08-27T05:12:15.770Z,13.90
2023-08-27T05:14:42.793Z,13.90
2023-08-27T05:17:10.293Z,14.00
2023-08-27T05:19:37.419Z,14.00
2023-08-27T05:22:06.314Z,14.00
2023-08-27T05:24:33.040Z,14.00
2023-08-27T05:27:00.385Z,14.00
2023-08-27T05:29:27.280Z,14.00
2023-08-27T05:31:54.381Z,14.00
2023-08-27T05:34:21.829Z,14.10
2023-08-27T05:36:48.925Z,14.10
2023-08-27T05:39:17.161Z,14.10
2023-08-27T05:41:43.841Z,14.20
2023-08-27T05:44:11.280Z,14.20
2023-08-27T05:46:38.110Z,14.20
2023-08-27T05:49:05.628Z,14.20
2023-08-27T05:51:33.700Z,14.30
2023-08-27T05:54:01.199Z,14.30
2023-08-27T05:56:28.557Z,14.30
2023-08-27T05:58:56.130Z,14.30
2023-08-27T06:01:23.723Z,14.30
2023-08-27T06:03:51.385Z,14.30
2023-08-27T06:06:18.108Z,14.30
2023-08-27T06:08:45.579Z,14.30
2023-08-27T06:11:12.238Z,14.30
2023-08-27T06:13:39.707Z,14.30
2023-08-27T06:16:06.456Z,14.30
2023-08-27T06:18:33.868Z,14.40
2023-08-27T06:21:00.565Z,14.30
2023-08-27T06:23:28.311Z,14.30
2023-08-27T06:25:55.710Z,14.40
2023-08-27T06:28:23.485Z,14.50
2023-08-27T06:30:50.182Z,14.50
2023-08-27T06:33:18.923Z,14.70
2023-08-27T06:35:45.941Z,14.80
2023-08-27T06:38:13.497Z,15.00
2023-08-27T06:40:41.404Z,16.10
2023-08-27T06:43:09.423Z,17.10
2023-08-27T06:45:43.096Z,17.00
2023-08-27T06:48:11.068Z,16.90
2023-08-27T06:50:39.515Z,16.80
2023-08-27T06:53:10.063Z,16.70
2023-08-27T06:55:36.741Z,16.60
2023-08-27T06:58:04.663Z,16.60
2023-08-27T07:00:32.867Z,16.50
2023-08-27T07:03:00.712Z,16.50
2023-08-27T07:05:30.501Z,16.50
2023-08-27T07:07:59.114Z,17.00
2023-08-27T07:10:26.272Z,17.20
2023-08-27T07:12:53.566Z,17.30
2023-08-27T07:15:21.007Z,17.80
2023-08-27T07:17:47.793Z,18.80
2023-08-27T07:20:15.540Z,19.90
2023-08-27T07:22:42.466Z,22.10
2023-08-27T07:25:11.429Z,23.60
2023-08-27T07:27:38.554Z,23.70
2023-08-27T07:30:07.760Z,23.40
2023-08-27T07:32:34.498Z,23.20
2023-08-27T07:35:01.749Z,23.80
2023-08-27T07:37:33.635Z,24.00
2023-08-27T07:40:02.804Z,23.30
2023-08-27T07:42:29.515Z,24.20
2023-08-27T07:44:57.396Z,23.40
2023-08-27T07:47:24.431Z,23.00
2023-08-27T07:49:51.793Z,22.20
2023-08-27T07:52:18.470Z,22.10
2023-08-27T07:54:46.638Z,23.20
2023-08-27T07:57:13.742Z,22.90
2023-08-27T07:59:44.182Z,22.30
2023-08-27T08:02:11.260Z,21.80
2023-08-27T08:04:38.461Z,21.20
2023-08-27T08:07:05.203Z,20.70
2023-08-27T08:09:32.564Z,20.40
2023-08-27T08:11:59.399Z,20.10
2023-08-27T08:14:26.706Z,19.90
2023-08-27T08:16:54.298Z,19.70
2023-08-27T08:19:21.772Z,19.40
2023-08-27T08:21:48.446Z,19.30
2023-08-27T08:24:16.910Z,19.20
2023-08-27T08:26:43.740Z,19.10
2023-08-27T08:29:11.221Z,19.10
2023-08-27T08:31:37.923Z,19.10
2023-08-27T08:34:05.301Z,19.20
2023-08-27T08:36:33.910Z,19.30
2023-08-27T08:39:01.378Z,19.40
2023-08-27T08:41:29.478Z,19.50
2023-08-27T08:44:09.355Z,19.70
2023-08-27T08:46:38.581Z,19.60
2023-08-27T08:49:10.722Z,19.90
2023-08-27T08:51:39.856Z,20.10
2023-08-27T08:54:11.972Z,20.40
2023-08-27T08:56:41.838Z,20.60
2023-08-27T08:59:08.774Z,20.80
2023-08-27T09:01:36.715Z,21.00
2023-08-27T09:04:07.148Z,21.30
2023-08-27T09:06:35.733Z,21.20
2023-08-27T09:09:02.687Z,21.20
2023-08-27T09:11:32.363Z,21.00
2023-08-27T09:14:03.755Z,21.10
2023-08-27T09:16:31.784Z,20.80
2023-08-27T09:18:58.628Z,20.70
2023-08-27T09:21:26.003Z,20.50
2023-08-27T09:23:55.009Z,20.40
2023-08-27T09:26:22.285Z,20.20
2023-08-27T09:28:49.347Z,20.50
2023-08-27T09:31:36.541Z,20.50
2023-08-27T09:34:03.517Z,20.30
2023-08-27T09:36:33.600Z,20.20
2023-08-27T09:39:13.344Z,20.00
2023-08-27T09:41:51.231Z,19.90
2023-08-27T09:44:18.222Z,19.80
2023-08-27T09:46:45.261Z,19.90
2023-08-27T09:49:11.988Z,20.30
2023-08-27T09:51:40.709Z,20.50
2023-08-27T09:54:15.202Z,20.50
2023-08-27T09:56:46.582Z,20.50
2023-08-27T09:59:19.644Z,20.40
2023-08-27T10:01:50.514Z,20.20
2023-08-27T10:04:18.290Z,20.00
2023-08-27T10:06:45.905Z,20.10
2023-08-27T10:09:13.566Z,20.30
2023-08-27T10:11:44.729Z,20.70
2023-08-27T10:14:12.200Z,21.00
2023-08-27T10:16:40.104Z,21.30
2023-08-27T10:19:07.995Z,21.70
2023-08-27T10:21:35.069Z,22.10
2023-08-27T10:24:02.733Z,22.30
2023-08-27T10:26:31.315Z,22.40
2023-08-27T10:28:59.925Z,22.30
2023-08-27T10:31:27.345Z,22.00
2023-08-27T10:33:54.815Z,21.90
2023-08-27T10:36:28.415Z,21.60
2023-08-27T10:38:57.407Z,21.60
2023-08-27T10:41:26.897Z,21.30
2023-08-27T10:43:54.931Z,21.00
2023-08-27T10:46:25.365Z,20.80
2023-08-27T10:48:54.705Z,20.50
2023-08-27T10:51:27.989Z,20.30
2023-08-27T10:54:00.084Z,20.50
2023-08-27T10:56:33.803Z,21.10
2023-08-27T10:59:03.141Z,21.60
2023-08-27T11:01:35.238Z,22.00
2023-08-27T11:04:05.761Z,22.20
2023-08-27T11:06:41.369Z,22.40
2023-08-27T11:09:26.609Z,22.60
2023-08-27T11:11:55.250Z,22.70
2023-08-27T11:14:26.788Z,22.70
2023-08-27T11:16:59.630Z,22.40
2023-08-27T11:19:33.534Z,22.10
2023-08-27T11:22:15.007Z,21.90
2023-08-27T11:24:49.780Z,21.80
2023-08-27T11:27:22.056Z,22.00
2023-08-27T11:29:53.440Z,22.30
2023-08-27T11:32:21.303Z,22.70
2023-08-27T11:34:53.947Z,23.00
2023-08-27T11:37:29.983Z,23.00
2023-08-27T11:39:57.675Z,23.00
2023-08-27T11:42:24.870Z,22.80
2023-08-27T11:44:56.785Z,22.80
2023-08-27T11:47:24.740Z,22.90
2023-08-27T11:49:58.603Z,22.90
2023-08-27T11:52:25.706Z,23.10
2023-08-27T11:54:54.279Z,23.20
2023-08-27T11:57:21.660Z,23.20
2023-08-27T11:59:50.193Z,23.30
2023-08-27T12:02:17.764Z,23.30
2023-08-27T12:04:45.957Z,23.20
2023-08-27T12:07:13.232Z,23.10
2023-08-27T12:09:40.474Z,23.20
2023-08-27T12:12:09.080Z,23.10
2023-08-27T12:14:37.566Z,23.10
2023-08-27T12:17:10.898Z,23.30
2023-08-27T12:19:41.026Z,23.60
2023-08-27T12:22:08.650Z,23.80
2023-08-27T12:24:45.899Z,23.60
2023-08-27T12:27:17.594Z,23.60
2023-08-27T12:29:46.310Z,23.80
2023-08-27T12:32:15.698Z,23.80
2023-08-27T12:34:45.014Z,23.70
2023-08-27T12:37:13.543Z,23.40
2023-08-27T12:39:42.093Z,22.90
2023-08-27T12:42:10.388Z,22.50
2023-08-27T12:44:37.606Z,22.10
2023-08-27T12:47:07.451Z,21.70
2023-08-27T12:49:35.099Z,21.10
2023-08-27T12:52:02.704Z,20.00
2023-08-27T12:54:29.502Z,18.70
2023-08-27T12:56:57.401Z,17.90
2023-08-27T12:59:25.647Z,17.30
2023-08-27T13:01:52.858Z,17.00
2023-08-27T13:04:19.612Z,16.90
2023-08-27T13:06:46.382Z,17.20
2023-08-27T13:09:16.291Z,17.50
2023-08-27T13:11:43.224Z,18.00
2023-08-27T13:14:10.658Z,18.30
2023-08-27T13:16:38.684Z,18.70
2023-08-27T13:19:06.727Z,18.80
2023-08-27T13:21:33.478Z,18.90
2023-08-27T13:24:02.621Z,19.10
2023-08-27T13:26:29.388Z,19.20
2023-08-27T13:28:56.644Z,19.40
2023-08-27T13:31:23.490Z,19.60
2023-08-27T13:33:50.893Z,19.80
2023-08-27T13:36:18.155Z,20.00
2023-08-27T13:38:45.769Z,20.00
2023-08-27T13:41:12.834Z,19.90
2023-08-27T13:43:39.864Z,19.60
2023-08-27T13:46:06.674Z,19.10
2023-08-27T13:48:33.495Z,18.70
2023-08-27T13:51:00.572Z,18.30
2023-08-27T13:53:35.073Z,18.00
2023-08-27T13:56:02.465Z,17.60
2023-08-27T13:58:30.330Z,17.20
2023-08-27T14:00:57.861Z,16.90
2023-08-27T14:03:24.860Z,16.80
2023-08-27T14:05:52.170Z,16.60
2023-08-27T14:08:29.919Z,16.50
2023-08-27T14:10:57.098Z,16.40
2023-08-27T14:13:24.060Z,16.30
2023-08-27T14:15:51.812Z,16.30
2023-08-27T14:18:18.536Z,16.30
2023-08-27T14:20:45.608Z,16.30
2023-08-27T14:23:12.445Z,16.40
2023-08-27T14:25:40.914Z,16.50
2023-08-27T14:28:07.852Z,16.60
2023-08-27T14:30:34.925Z,16.70
2023-08-27T14:33:01.764Z,16.90
2023-08-27T14:35:28.733Z,17.00
2023-08-27T14:37:57.016Z,17.10
2023-08-27T14:40:23.767Z,17.10
2023-08-27T14:42:50.992Z,17.10
2023-08-27T14:45:17.912Z,17.20
2023-08-27T14:47:45.115Z,17.30
2023-08-27T14:50:12.218Z,17.40
2023-08-27T14:52:39.334Z,17.50
2023-08-27T14:55:06.734Z,17.70
2023-08-27T14:57:34.467Z,17.70
2023-08-27T15:00:01.853Z,17.60
2023-08-27T15:02:29.303Z,17.60
2023-08-27T15:04:56.146Z,17.90
2023-08-27T15:07:23.395Z,18.20
2023-08-27T15:09:51.822Z,18.50
2023-08-27T15:12:20.365Z,18.70
2023-08-27T15:14:47.962Z,18.80
2023-08-27T15:17:16.101Z,18.80
2023-08-27T15:19:44.091Z,18.70
2023-08-27T15:22:11.161Z,18.50
2023-08-27T15:24:38.025Z,18.40
2023-08-27T15:27:05.250Z,18.20
2023-08-27T15:29:32.641Z,18.00
2023-08-27T15:31:59.436Z,17.90
2023-08-27T15:34:26.904Z,17.80
2023-08-27T15:36:54.961Z,17.80
2023-08-27T15:39:23.054Z,17.70
2023-08-27T15:41:49.837Z,17.50
2023-08-27T15:44:17.245Z,17.40
2023-08-27T15:46:44.185Z,17.30
2023-08-27T15:49:12.286Z,17.30
2023-08-27T15:51:40.559Z,17.20
2023-08-27T15:54:08.033Z,17.10
2023-08-27T15:56:34.799Z,17.10
2023-08-27T15:59:01.944Z,17.10
2023-08-27T16:01:28.665Z,17.10
2023-08-27T16:03:56.053Z,17.00
2023-08-27T16:06:22.774Z,17.00
2023-08-27T16:08:54.343Z,17.00
2023-08-27T16:11:22.094Z,17.00
2023-08-27T16:13:49.560Z,17.00
2023-08-27T16:16:16.371Z,17.00
2023-08-27T16:18:43.747Z,16.90
2023-08-27T16:21:10.634Z,16.90
2023-08-27T16:23:37.980Z,16.90
2023-08-27T16:26:04.682Z,16.90
2023-08-27T16:28:32.028Z,16.80
2023-08-27T16:30:58.810Z,16.80
2023-08-27T16:33:25.784Z,16.80
2023-08-27T16:35:52.525Z,16.80
2023-08-27T16:38:19.409Z,16.70
2023-08-27T16:40:46.525Z,16.60
2023-08-27T16:43:14.326Z,16.60
2023-08-27T16:45:41.864Z,16.50
2023-08-27T16:48:08.636Z,16.50
2023-08-27T16:50:39.645Z,16.40
2023-08-27T16:53:06.471Z,16.50
2023-08-27T16:55:34.009Z,16.40
2023-08-27T16:58:01.107Z,16.40
2023-08-27T17:00:30.270Z,16.40
2023-08-27T17:03:00.350Z,16.40
2023-08-27T17:05:27.991Z,16.30
2023-08-27T17:07:54.727Z,16.30
2023-08-27T17:10:22.606Z,16.20
2023-08-27T17:12:49.479Z,16.20
2023-08-27T17:15:19.869Z,16.20
2023-08-27T17:17:46.892Z,16.20
2023-08-27T17:20:14.487Z,16.20
2023-08-27T17:22:41.517Z,16.20
2023-08-27T17:25:09.005Z,16.20
2023-08-27T17:27:35.688Z,16.10
2023-08-27T17:30:03.538Z,16.00
2023-08-27T17:32:30.267Z,16.00
2023-08-27T17:34:57.432Z,15.90
2023-08-27T17:37:24.656Z,15.80
2023-08-27T17:40:17.376Z,15.80
2023-08-27T17:42:44.113Z,15.70
2023-08-27T17:45:11.758Z,15.80
2023-08-27T17:47:38.514Z,15.80
2023-08-27T17:50:06.192Z,15.70
2023-08-27T17:52:34.135Z,15.70
2023-08-27T17:55:04.139Z,15.60
2023-08-27T17:57:31.583Z,15.60
2023-08-27T17:59:59.129Z,15.60
2023-08-27T18:02:26.259Z,15.50
2023-08-27T18:04:53.768Z,15.50
2023-08-27T18:07:21.109Z,15.60
2023-08-27T18:09:47.782Z,15.70
2023-08-27T18:12:15.208Z,15.70
2023-08-27T18:14:41.886Z,15.70
2023-08-27T18:17:09.214Z,15.80
2023-08-27T18:19:36.008Z,15.60
2023-08-27T18:22:03.445Z,15.60
2023-08-27T18:24:31.741Z,15.50
2023-08-27T18:27:00.149Z,15.40
2023-08-27T18:29:27.301Z,15.30
2023-08-27T18:31:54.741Z,15.20
2023-08-27T18:34:21.458Z,15.10
2023-08-27T18:36:48.747Z,15.00
2023-08-27T18:39:18.854Z,14.90
2023-08-27T18:41:46.280Z,14.90
2023-08-27T18:44:13.000Z,14.80
2023-08-27T18:46:40.052Z,14.80
2023-08-27T18:49:07.148Z,14.70
2023-08-27T18:51:34.292Z,14.70
2023-08-27T18:54:02.163Z,14.60
2023-08-27T18:56:30.662Z,14.60
2023-08-27T18:58:58.535Z,14.50
2023-08-27T19:01:25.638Z,14.40
2023-08-27T19:03:55.694Z,14.40
2023-08-27T19:06:22.473Z,14.30
2023-08-27T19:08:52.739Z,14.30
2023-08-27T19:11:19.538Z,14.20
2023-08-27T19:13:47.378Z,14.20
2023-08-27T19:16:14.044Z,14.10
2023-08-27T19:18:41.538Z,14.00
2023-08-27T19:21:08.261Z,13.90
2023-08-27T19:23:35.533Z,13.90
2023-08-27T19:26:12.175Z,13.80
2023-08-27T19:28:44.882Z,13.80
2023-08-27T19:31:11.809Z,13.80
2023-08-27T19:33:39.130Z,13.70
2023-08-27T19:36:06.579Z,13.70
2023-08-27T19:38:33.762Z,13.60
2023-08-27T19:41:01.591Z,13.60
2023-08-27T19:43:29.522Z,13.50
2023-08-27T19:45:59.756Z,13.50
2023-08-27T19:48:30.606Z,13.50
2023-08-27T19:50:57.828Z,13.50
2023-08-27T19:53:25.169Z,13.40
2023-08-27T19:55:53.601Z,13.40
2023-08-27T19:58:20.918Z,13.40
2023-08-27T20:00:47.721Z,13.40
2023-08-27T20:03:15.156Z,13.40
2023-08-27T20:05:42.372Z,13.40
2023-08-27T20:08:11.580Z,13.40
2023-08-27T20:10:38.858Z,13.30
2023-08-27T20:13:09.316Z,13.30
2023-08-27T20:15:39.604Z,13.20
2023-08-27T20:18:08.391Z,13.20
2023-08-27T20:20:36.830Z,13.20
2023-08-27T20:23:04.479Z,13.20
2023-08-27T20:25:33.179Z,13.20
2023-08-27T20:28:00.573Z,13.20
2023-08-27T20:30:29.370Z,13.20
2023-08-27T20:32:56.317Z,13.20
2023-08-27T20:35:24.332Z,13.20
2023-08-27T20:37:51.624Z,13.10
2023-08-27T20:40:19.148Z,13.10
2023-08-27T20:42:46.680Z,13.10
2023-08-27T20:45:14.306Z,13.10
2023-08-27T20:47:41.085Z,13.20
2023-08-27T20:50:09.259Z,13.10
2023-08-27T20:52:35.934Z,13.10
2023-08-27T20:55:03.558Z,13.10
2023-08-27T20:57:30.441Z,13.10
2023-08-27T20:59:57.998Z,13.10
2023-08-27T21:02:24.825Z,13.00
2023-08-27T21:04:52.097Z,13.00
2023-08-27T21:07:18.881Z,13.00
2023-08-27T21:09:49.192Z,13.00
2023-08-27T21:12:15.960Z,13.00
2023-08-27T21:17:45.912Z,12.90
2023-08-27T21:20:13.289Z,12.90
2023-08-27T21:22:40.619Z,12.80
2023-08-27T21:25:08.847Z,12.80
2023-08-27T21:27:35.946Z,12.70
2023-08-27T21:30:04.256Z,12.80
2023-08-27T21:32:31.257Z,12.80
2023-08-27T21:34:58.676Z,12.70
2023-08-27T21:37:25.406Z,12.70
2023-08-27T21:39:53.033Z,12.70
2023-08-27T21:42:19.702Z,12.60
2023-08-27T21:44:47.040Z,12.60
2023-08-27T21:47:14.190Z,12.60
2023-08-27T21:49:41.549Z,12.60
2023-08-27T21:52:08.325Z,12.50
2023-08-27T21:54:35.676Z,12.50
2023-08-27T21:57:02.384Z,12.40
2023-08-27T21:59:29.517Z,12.40
2023-08-27T22:01:56.893Z,12.30
2023-08-27T22:04:23.694Z,12.30
2023-08-27T22:06:51.860Z,12.30
2023-08-27T22:09:18.583Z,12.30
2023-08-27T22:11:45.979Z,12.30
2023-08-27T22:14:12.666Z,12.20
2023-08-27T22:16:40.114Z,12.20
2023-08-27T22:19:21.077Z,12.20
2023-08-27T22:21:50.682Z,12.10
2023-08-27T22:24:17.741Z,12.20
2023-08-27T22:26:44.574Z,12.20
2023-08-27T22:29:11.624Z,12.20
2023-08-27T22:31:39.019Z,12.10
2023-08-27T22:34:05.893Z,12.10
2023-08-27T22:36:33.477Z,12.10
2023-08-27T22:39:00.215Z,12.20
2023-08-27T22:41:27.609Z,12.20
2023-08-27T22:43:54.410Z,12.20
2023-08-27T22:46:21.927Z,12.20
2023-08-27T22:48:48.770Z,12.20
2023-08-27T22:51:16.079Z,12.20
2023-08-27T22:53:43.424Z,12.20
2023-08-27T22:56:10.957Z,12.20
2023-08-27T22:58:37.887Z,12.20
2023-08-27T23:01:05.327Z,12.20
2023-08-27T23:03:32.228Z,12.20
2023-08-27T23:05:59.616Z,12.20
2023-08-27T23:08:26.296Z,12.20
2023-08-27T23:10:56.467Z,12.20
2023-08-27T23:13:24.371Z,12.20
2023-08-27T23:15:51.819Z,12.20
2023-08-27T23:18:18.815Z,12.20
2023-08-27T23:20:46.639Z,12.20
2023-08-27T23:23:13.351Z,12.20
2023-08-27T23:25:43.319Z,12.20
2023-08-27T23:28:10.039Z,12.10
2023-08-27T23:30:37.823Z,12.10
2023-08-27T23:33:06.329Z,12.00
2023-08-27T23:35:35.542Z,12.00
2023-08-27T23:38:02.441Z,12.00
2023-08-27T23:40:30.109Z,12.00
2023-08-27T23:42:56.853Z,11.90
2023-08-27T23:45:23.873Z,11.90
2023-08-27T23:47:51.213Z,11.80
2023-08-27T23:50:18.067Z,11.90
2023-08-27T23:52:45.424Z,11.90
2023-08-27T23:55:12.233Z,11.90
2023-08-27T23:57:39.584Z,11.90
